Time;durP1;ratioP1;P1;durP2;ratioP2;P2;SDS_P1;SDS_P2;PMS_P1;PMS_P2;Temp;Humidity;BMP_temperature;BMP_pressure;BME280_temperature;BME280_humidity;BME280_pressure;Samples;Min_cycle;Max_cycle;Signal;HPM_P1;HPM_P2
2022/09/09 00:01:27;;;;;;;5.40;1.98;;;;;;;15.45;69.88;98737.69;5227186;28;20146;-71
2022/09/09 00:04:27;;;;;;;4.63;2.08;;;;;;;15.56;69.85;98738.25;5227224;28;20044;-71
2022/09/09 00:07:48;;;;;;;4.80;2.70;;;;;;;15.87;70.42;98736.28;5226823;28;20184;-71
2022/09/09 00:10:41;;;;;;;7.75;2.25;;;;;;;15.74;69.99;98736.94;5226848;28;20111;-71
2022/09/09 00:13:46;;;;;;;4.10;2.15;;;;;;;15.65;69.61;98737.16;5226805;28;20060;-71
2022/09/09 00:16:42;;;;;;;4.50;2.03;;;;;;;15.67;70.65;98745.88;5226934;28;20053;-71
2022/09/09 00:19:42;;;;;;;7.78;2.35;;;;;;;15.99;71.13;98744.66;5226748;28;20643;-71
2022/09/09 00:22:32;;;;;;;3.13;2.03;;;;;;;15.90;71.94;98730.59;5225562;28;20052;-71
2022/09/09 00:25:29;;;;;;;8.30;2.60;;;;;;;15.98;70.81;98724.31;5226589;28;20123;-71
2022/09/09 00:28:24;;;;;;;5.43;2.22;;;;;;;16.12;70.54;98736.81;5226368;28;20087;-71
2022/09/09 00:31:23;;;;;;;4.10;2.08;;;;;;;16.03;70.61;98729.13;5226173;28;20052;-71
2022/09/09 00:34:18;;;;;;;5.28;2.03;;;;;;;16.10;70.44;98730.84;5211322;28;20559;-71
2022/09/09 00:37:09;;;;;;;6.22;2.40;;;;;;;16.08;70.31;98721.34;5211242;28;20055;-71
2022/09/09 00:40:08;;;;;;;3.22;2.03;;;;;;;16.13;70.33;98724.31;5225547;28;20100;-71
2022/09/09 00:43:29;;;;;;;6.03;2.28;;;;;;;16.01;71.12;98725.78;5226188;28;20126;-71
2022/09/09 00:46:50;;;;;;;4.30;2.00;;;;;;;15.98;70.20;98721.63;5226281;28;20144;-71
2022/09/09 00:49:53;;;;;;;5.95;2.58;;;;;;;16.00;70.71;98730.31;5226752;28;20060;-71
2022/09/09 00:53:05;;;;;;;3.35;2.35;;;;;;;16.05;70.17;98737.75;5211175;28;20197;-71
2022/09/09 00:56:01;;;;;;;5.53;2.30;;;;;;;16.05;70.76;98729.75;5211059;28;20526;-71
2022/09/09 00:59:24;;;;;;;5.13;2.10;;;;;;;16.05;71.04;98732.41;5226187;28;20056;-71
2022/09/09 01:02:37;;;;;;;7.82;2.13;;;;;;;16.14;71.16;98742.00;5209411;28;20568;-71
2022/09/09 01:05:35;;;;;;;7.45;2.55;;;;;;;16.18;70.69;98741.44;5211213;28;20045;-71
2022/09/09 01:09:03;;;;;;;5.68;2.35;;;;;;;16.50;69.63;98741.22;5210584;28;20202;-71
2022/09/09 01:12:10;;;;;;;12.15;2.38;;;;;;;16.40;69.81;98734.31;5224748;28;20060;-71
2022/09/09 01:15:19;;;;;;;7.65;2.30;;;;;;;16.18;70.75;98736.09;5224891;28;20141;-71
2022/09/09 01:18:17;;;;;;;3.88;2.22;;;;;;;16.14;70.54;98712.59;5225453;28;20057;-71
2022/09/09 01:21:38;;;;;;;7.10;2.40;;;;;;;16.54;70.13;98737.16;5209258;28;20048;-71
2022/09/09 01:24:45;;;;;;;6.40;2.40;;;;;;;16.56;69.40;98735.13;5210557;28;20083;-71
2022/09/09 01:27:44;;;;;;;8.98;2.38;;;;;;;16.38;70.94;98733.66;5209959;28;20702;-71
2022/09/09 01:30:39;;;;;;;5.05;2.30;;;;;;;16.26;70.67;98727.16;5225367;28;20056;-71
2022/09/09 01:33:32;;;;;;;5.00;2.20;;;;;;;16.39;70.56;98734.47;5210164;28;20052;-71
2022/09/09 01:36:29;;;;;;;6.13;2.28;;;;;;;16.56;70.34;98745.81;5225515;28;20149;-71
2022/09/09 01:39:20;;;;;;;4.25;2.17;;;;;;;16.49;70.74;98747.56;5210305;28;20140;-71
2022/09/09 01:42:19;;;;;;;6.55;2.47;;;;;;;16.64;70.02;98753.72;5210455;28;20060;-71
2022/09/09 01:45:09;;;;;;;7.35;2.35;;;;;;;16.52;69.95;98750.69;5246488;28;20669;-71
2022/09/09 01:48:00;;;;;;;6.57;1.90;;;;;;;16.53;70.49;98757.72;5215655;28;20527;-71
2022/09/09 01:51:08;;;;;;;6.43;2.40;;;;;;;16.57;71.06;98753.66;5223715;28;20155;-71
2022/09/09 01:53:59;;;;;;;4.47;2.38;;;;;;;16.65;70.17;98752.72;5225064;28;20143;-71
2022/09/09 01:57:17;;;;;;;5.90;2.50;;;;;;;16.47;70.65;98749.63;5194127;28;20051;-71
2022/09/09 02:00:13;;;;;;;9.00;2.50;;;;;;;16.51;70.66;98753.56;5209822;28;20585;-71
2022/09/09 02:03:23;;;;;;;4.28;2.22;;;;;;;16.55;69.55;98749.50;5210762;28;20053;-71
2022/09/09 02:06:30;;;;;;;5.75;2.35;;;;;;;16.48;70.38;98743.25;5209206;28;20068;-71
2022/09/09 02:09:30;;;;;;;5.45;2.60;;;;;;;16.61;69.56;98740.72;5209651;28;20119;-71
2022/09/09 02:12:25;;;;;;;7.78;2.58;;;;;;;16.67;69.95;98742.66;5208279;28;20530;-71
2022/09/09 02:15:43;;;;;;;5.85;2.63;;;;;;;16.58;70.16;98733.06;5209684;28;20079;-71
2022/09/09 02:18:47;;;;;;;5.72;2.20;;;;;;;16.64;69.46;98737.66;5237615;28;20186;-71
2022/09/09 02:21:41;;;;;;;3.90;2.05;;;;;;;16.37;70.30;98731.19;5208565;28;20053;-71
2022/09/09 02:24:37;;;;;;;6.22;2.13;;;;;;;16.41;69.80;98738.63;5204820;28;20618;-71
2022/09/09 02:27:45;;;;;;;4.22;2.10;;;;;;;16.40;69.61;98741.53;5208895;28;20064;-71
2022/09/09 02:30:39;;;;;;;10.27;2.95;;;;;;;16.33;69.88;98738.75;5209127;28;20421;-71
2022/09/09 02:33:36;;;;;;;5.47;2.42;;;;;;;16.39;69.40;98747.88;5224154;28;20076;-71
2022/09/09 02:36:31;;;;;;;3.72;2.20;;;;;;;16.34;69.43;98751.13;5223890;28;20049;-71
2022/09/09 02:39:21;;;;;;;4.93;2.03;;;;;;;16.23;69.34;98750.78;5225043;28;20169;-71
2022/09/09 02:42:14;;;;;;;8.32;2.30;;;;;;;16.30;69.85;98749.00;5208428;28;20534;-71
2022/09/09 02:45:07;;;;;;;3.90;2.13;;;;;;;16.21;69.27;98738.41;5209194;28;20127;-71
2022/09/09 02:48:02;;;;;;;8.25;2.08;;;;;;;16.09;69.62;98733.69;5208492;28;20056;-71
2022/09/09 02:51:06;;;;;;;9.57;2.55;;;;;;;16.03;69.45;98721.09;5208745;28;20090;-71
2022/09/09 02:54:19;;;;;;;6.53;2.10;;;;;;;16.00;69.95;98732.97;5208750;28;20210;-71
2022/09/09 02:57:17;;;;;;;6.25;2.20;;;;;;;16.05;69.85;98737.75;5223686;28;20056;-71
2022/09/09 03:00:11;;;;;;;5.03;2.10;;;;;;;16.00;69.75;98724.97;5208555;28;20053;-71
2022/09/09 03:03:03;;;;;;;7.07;1.70;;;;;;;16.04;69.25;98710.19;5208100;28;20466;-71
2022/09/09 03:05:56;;;;;;;5.32;2.20;;;;;;;16.12;68.16;98707.41;5208530;28;20068;-71
2022/09/09 03:08:49;;;;;;;6.15;1.73;;;;;;;16.40;67.44;98715.59;5194834;28;20056;-71
2022/09/09 03:11:45;;;;;;;4.82;1.88;;;;;;;16.35;67.62;98709.94;5209159;28;20140;-71
2022/09/09 03:14:38;;;;;;;7.55;1.52;;;;;;;16.39;67.09;98711.25;5179380;28;20057;-71
2022/09/09 03:17:29;;;;;;;4.80;1.60;;;;;;;16.16;68.18;98707.88;5207857;28;20123;-71
2022/09/09 03:20:20;;;;;;;5.47;1.63;;;;;;;15.95;67.91;98711.31;5208004;28;20095;-71
2022/09/09 03:23:13;;;;;;;3.17;1.85;;;;;;;15.84;68.86;98709.94;5207679;28;20082;-71
2022/09/09 03:26:06;;;;;;;3.92;1.60;;;;;;;15.69;68.89;98709.09;5208144;28;20045;-71
2022/09/09 03:29:06;;;;;;;5.05;1.60;;;;;;;15.93;69.17;98727.53;5223205;28;20149;-71
2022/09/09 03:31:56;;;;;;;3.90;1.95;;;;;;;15.91;69.42;98716.19;5222806;28;20107;-71
2022/09/09 03:34:47;;;;;;;7.55;2.35;;;;;;;16.15;69.34;98724.94;5206765;28;20449;-71
2022/09/09 03:37:38;;;;;;;3.72;2.10;;;;;;;15.95;69.39;98725.50;5207857;28;20515;-71
2022/09/09 03:40:29;;;;;;;4.72;1.92;;;;;;;15.68;69.90;98728.81;5207591;28;20076;-71
2022/09/09 03:43:19;;;;;;;4.05;2.10;;;;;;;15.62;70.67;98738.34;5222750;28;20084;-71
2022/09/09 03:46:10;;;;;;;4.72;2.00;;;;;;;15.60;69.89;98734.22;5207656;28;20091;-71
2022/09/09 03:49:02;;;;;;;3.65;1.80;;;;;;;15.56;69.16;98732.91;5194682;28;20486;-71
2022/09/09 03:51:58;;;;;;;4.70;1.90;;;;;;;15.79;68.80;98732.88;5207576;28;20056;-71
2022/09/09 03:54:49;;;;;;;7.53;2.08;;;;;;;15.90;67.73;98732.44;5207983;28;20072;-71
2022/09/09 03:57:39;;;;;;;3.35;1.95;;;;;;;15.79;68.91;98744.38;5208251;28;20064;-71
2022/09/09 04:00:32;;;;;;;7.65;2.05;;;;;;;15.77;69.51;98724.22;5236028;28;20186;-71
2022/09/09 04:03:24;;;;;;;5.72;2.00;;;;;;;15.97;69.35;98725.31;5223253;28;20049;-71
2022/09/09 04:06:18;;;;;;;5.03;2.22;;;;;;;16.29;67.13;98731.28;5207817;28;20079;-71
2022/09/09 04:09:10;;;;;;;6.50;2.00;;;;;;;16.42;66.27;98720.72;5207958;28;20056;-71
2022/09/09 04:12:00;;;;;;;4.90;1.65;;;;;;;16.57;66.18;98728.75;5206189;28;20045;-71
2022/09/09 04:14:52;;;;;;;7.32;1.70;;;;;;;16.30;67.37;98724.94;5216674;28;20063;-71
2022/09/09 04:17:43;;;;;;;8.63;2.20;;;;;;;16.32;67.34;98728.22;5222769;28;20059;-71
2022/09/09 04:20:35;;;;;;;4.68;1.60;;;;;;;16.29;67.14;98728.59;5221409;28;20135;-71
2022/09/09 04:23:28;;;;;;;6.50;2.30;;;;;;;16.23;67.17;98740.06;5206999;28;20423;-71
2022/09/09 04:26:20;;;;;;;4.30;2.00;;;;;;;16.10;67.33;98738.88;5207442;28;20180;-71
2022/09/09 04:29:10;;;;;;;5.97;1.77;;;;;;;15.96;67.40;98734.38;5207373;28;20057;-71
2022/09/09 04:32:01;;;;;;;4.43;1.50;;;;;;;15.97;67.58;98741.38;5214305;28;20051;-70
2022/09/09 04:34:52;;;;;;;7.20;1.85;;;;;;;16.06;68.14;98732.25;5208208;28;20064;-73
2022/09/09 04:37:44;;;;;;;4.75;1.63;;;;;;;15.97;67.97;98741.38;5235842;22;20037;-82
2022/09/09 04:40:34;;;;;;;3.30;1.90;;;;;;;16.00;68.53;98738.34;5263405;28;20052;-82
2022/09/09 04:43:26;;;;;;;9.88;2.05;;;;;;;15.94;69.68;98731.03;5250167;28;20045;-82
2022/09/09 04:46:17;;;;;;;5.18;2.40;;;;;;;16.16;70.15;98748.84;5265950;28;20063;-80
2022/09/09 04:49:08;;;;;;;6.10;2.40;;;;;;;16.10;69.40;98754.94;5251030;28;20094;-82
2022/09/09 04:52:05;;;;;;;7.30;2.05;;;;;;;16.27;69.85;98755.56;5268048;28;20044;-80
2022/09/09 04:54:58;;;;;;;9.38;2.20;;;;;;;16.59;68.35;98754.31;5265867;28;20068;-79
2022/09/09 04:57:48;;;;;;;9.38;1.83;;;;;;;16.67;66.76;98754.19;5251157;28;20071;-79
2022/09/09 05:00:38;;;;;;;7.75;1.60;;;;;;;16.67;65.60;98743.47;5239593;28;20044;-80
2022/09/09 05:03:31;;;;;;;3.85;1.60;;;;;;;16.55;66.13;98750.31;5264746;28;20138;-79
2022/09/09 05:06:22;;;;;;;3.88;1.42;;;;;;;16.51;68.15;98757.09;5249856;28;20060;-79
2022/09/09 05:09:17;;;;;;;1.90;1.50;;;;;;;16.38;68.33;98755.06;5263009;28;20059;-78
2022/09/09 05:12:09;;;;;;;6.15;2.35;;;;;;;16.40;69.40;98747.69;5254559;28;20098;-79
2022/09/09 05:15:03;;;;;;;;;;;;;;;16.41;70.14;98776.09;5254833;28;20126;-79
2022/09/09 05:18:01;;;;;;;12.43;2.42;;;;;;;16.29;69.58;98761.56;5261699;28;20424;-78
2022/09/09 05:21:00;;;;;;;6.00;2.30;;;;;;;16.35;70.15;98771.50;5246976;28;20099;-79
2022/09/09 05:23:51;;;;;;;6.38;2.10;;;;;;;16.36;69.66;98762.47;5277170;28;20045;-79
2022/09/09 05:26:43;;;;;;;3.85;2.33;;;;;;;16.54;70.12;98777.28;5234638;28;20105;-79
2022/09/09 05:29:34;;;;;;;2.80;2.13;;;;;;;16.44;69.40;98766.88;5259891;28;20048;-78
2022/09/09 05:32:26;;;;;;;4.65;2.17;;;;;;;16.48;68.81;98770.00;5255140;28;20525;-78
2022/09/09 05:35:18;;;;;;;2.90;1.83;;;;;;;16.63;69.08;98781.53;5248814;28;20048;-79
2022/09/09 05:38:08;;;;;;;4.93;1.83;;;;;;;16.64;69.33;98764.44;5262965;28;20546;-79
2022/09/09 05:41:00;;;;;;;7.57;2.55;;;;;;;16.74;69.64;98773.00;5247865;28;20053;-79
2022/09/09 05:43:51;;;;;;;9.40;2.50;;;;;;;16.87;69.21;98785.75;5233917;28;20037;-80
2022/09/09 05:46:42;;;;;;;11.25;2.55;;;;;;;17.11;68.84;98781.88;5262056;28;20088;-78
2022/09/09 05:49:36;;;;;;;11.90;2.63;;;;;;;16.79;69.11;98772.47;5261680;28;20059;-79
2022/09/09 05:52:27;;;;;;;5.60;2.55;;;;;;;16.83;69.65;98787.16;5251785;28;20048;-80
2022/09/09 05:55:19;;;;;;;4.53;2.17;;;;;;;16.92;69.29;98775.31;5233558;28;20044;-79
2022/09/09 05:58:09;;;;;;;6.60;2.42;;;;;;;17.16;68.87;98776.78;5248158;28;20048;-79
2022/09/09 06:01:07;;;;;;;9.93;3.05;;;;;;;17.24;69.60;98794.56;5242175;28;20421;-80
2022/09/09 06:03:58;;;;;;;5.85;2.63;;;;;;;17.19;68.75;98787.13;5233057;28;20071;-78
2022/09/09 06:06:48;;;;;;;8.13;2.60;;;;;;;17.18;69.82;98793.47;5247316;28;20525;-80
2022/09/09 06:09:41;;;;;;;8.43;2.70;;;;;;;17.30;68.49;98801.84;5247320;28;20138;-78
2022/09/09 06:12:32;;;;;;;5.03;2.42;;;;;;;17.34;68.32;98782.50;5247026;28;20060;-79
2022/09/09 06:15:24;;;;;;;8.65;2.45;;;;;;;17.65;67.22;98805.47;5236413;28;20056;-78
2022/09/09 06:18:18;;;;;;;7.85;1.88;;;;;;;17.92;64.64;98789.59;5235982;28;20055;-80
2022/09/09 06:21:15;;;;;;;5.75;1.67;;;;;;;17.89;63.51;98795.34;5225917;28;20660;-80
2022/09/09 06:24:07;;;;;;;5.50;1.70;;;;;;;18.05;62.50;98773.59;5246531;28;20048;-79
2022/09/09 06:26:58;;;;;;;3.92;1.50;;;;;;;17.93;63.09;98780.53;5246600;28;20059;-78
2022/09/09 06:29:52;;;;;;;4.22;1.63;;;;;;;18.17;61.99;98788.09;5246608;28;20055;-79
2022/09/09 06:32:42;;;;;;;5.72;1.77;;;;;;;18.02;62.76;98763.25;5246593;28;20410;-79
2022/09/09 06:35:33;;;;;;;2.65;1.40;;;;;;;18.16;62.20;98783.75;5246894;28;20052;-78
2022/09/09 06:38:23;;;;;;;4.15;1.55;;;;;;;18.29;63.12;98796.44;5246577;28;20418;-79
2022/09/09 06:41:16;;;;;;;6.57;1.73;;;;;;;18.55;61.54;98787.69;5247849;28;20075;-79
2022/09/09 06:44:07;;;;;;;5.25;1.70;;;;;;;18.45;61.88;98773.81;5246074;28;20178;-79
2022/09/09 06:47:03;;;;;;;8.02;3.38;;;;;;;18.44;61.17;98769.44;5274811;28;20059;-81
2022/09/09 06:49:56;;;;;;;27.95;14.77;;;;;;;18.18;61.32;98781.72;5246515;28;20059;-79
2022/09/09 06:52:47;;;;;;;6.03;2.00;;;;;;;18.23;60.75;98754.28;5232337;28;20512;-80
2022/09/09 06:55:40;;;;;;;4.38;1.50;;;;;;;18.35;61.98;98781.41;5246884;28;20055;-78
2022/09/09 06:58:31;;;;;;;9.50;2.00;;;;;;;18.63;61.95;98803.59;5249091;28;20216;-81
2022/09/09 07:01:27;;;;;;;10.57;1.63;;;;;;;18.95;59.97;98809.34;5245792;28;20488;-80
2022/09/09 07:04:20;;;;;;;5.97;1.60;;;;;;;19.12;59.85;98801.72;5221941;28;20066;-80
2022/09/09 07:07:13;;;;;;;7.22;1.40;;;;;;;19.21;59.58;98793.28;5234442;28;20048;-80
2022/09/09 07:10:04;;;;;;;6.10;1.67;;;;;;;19.08;60.90;98801.31;5247020;28;20100;-80
2022/09/09 07:12:55;;;;;;;4.88;1.38;;;;;;;19.47;58.87;98794.34;5219991;28;20052;-80
2022/09/09 07:15:47;;;;;;;7.07;1.80;;;;;;;19.28;59.67;98785.22;5221528;28;20071;-80
2022/09/09 07:18:40;;;;;;;8.32;1.73;;;;;;;19.52;59.85;98791.84;5223491;28;20856;-80
2022/09/09 07:21:31;;;;;;;5.68;1.30;;;;;;;19.67;59.33;98795.22;5230622;28;21598;-80
2022/09/09 07:24:22;;;;;;;5.25;2.10;;;;;;;19.86;61.55;98800.78;5247591;28;20060;-81
2022/09/09 07:27:12;;;;;;;3.30;1.30;;;;;;;20.02;59.92;98802.22;5235282;28;20095;-80
2022/09/09 07:30:04;;;;;;;5.90;1.50;;;;;;;19.94;59.75;98795.19;5231094;28;20056;-78
2022/09/09 07:32:56;;;;;;;4.35;1.10;;;;;;;20.22;58.97;98789.53;5245271;28;20056;-78
2022/09/09 07:35:47;;;;;;;5.47;0.95;;;;;;;20.10;58.00;98791.25;5214615;28;20060;-78
2022/09/09 07:38:45;;;;;;;4.35;0.90;;;;;;;20.44;57.30;98797.34;5215612;28;20198;-80
2022/09/09 07:41:41;;;;;;;4.25;0.80;;;;;;;20.37;56.58;98811.66;5222243;28;20052;-81
2022/09/09 07:44:34;;;;;;;1.60;0.80;;;;;;;20.56;57.75;98791.13;5222389;28;20038;-79
2022/09/09 07:47:33;;;;;;;4.47;1.05;;;;;;;21.01;56.89;98792.97;5238199;28;20056;-80
2022/09/09 07:50:24;;;;;;;2.88;1.33;;;;;;;21.20;55.42;98810.91;5237456;28;20064;-79
2022/09/09 07:53:15;;;;;;;14.35;1.77;;;;;;;21.23;56.10;98797.00;5231711;28;20890;-78
2022/09/09 07:56:12;;;;;;;6.43;1.27;;;;;;;21.66;54.56;98804.41;5238233;28;20075;-80
2022/09/09 07:59:06;;;;;;;6.25;1.30;;;;;;;21.32;54.91;98792.16;5241810;28;20064;-77
2022/09/09 08:01:58;;;;;;;2.58;0.70;;;;;;;22.05;53.31;98791.56;5232236;28;20051;-79
2022/09/09 08:04:51;;;;;;;4.63;1.13;;;;;;;23.59;50.66;98808.38;5214806;28;20084;-79
2022/09/09 08:07:44;;;;;;;3.92;1.02;;;;;;;25.01;48.68;98809.91;5236933;28;20138;-78
2022/09/09 08:10:34;;;;;;;7.05;1.38;;;;;;;24.73;46.38;98807.19;5245220;28;20186;-79
2022/09/09 08:13:26;;;;;;;4.78;0.85;;;;;;;25.49;44.74;98813.25;5229653;28;20134;-79
2022/09/09 08:16:23;;;;;;;3.00;0.90;;;;;;;26.35;43.45;98805.63;5231579;28;20064;-78
2022/09/09 08:19:14;;;;;;;4.40;1.08;;;;;;;26.67;40.42;98792.22;5232398;28;20071;-78
2022/09/09 08:22:07;;;;;;;2.75;0.60;;;;;;;26.81;43.20;98805.44;5227493;28;20087;-80
2022/09/09 08:25:00;;;;;;;5.22;0.88;;;;;;;27.52;39.98;98791.78;5257360;28;20134;-78
2022/09/09 08:27:52;;;;;;;2.13;0.68;;;;;;;26.83;40.92;98792.41;5236857;28;20064;-79
2022/09/09 08:30:43;;;;;;;3.97;0.82;;;;;;;27.48;40.81;98766.94;5249897;28;20078;-78
2022/09/09 08:33:34;;;;;;;3.08;0.68;;;;;;;27.87;40.34;98786.63;5244040;28;20083;-78
2022/09/09 08:36:26;;;;;;;6.10;0.88;;;;;;;26.65;40.80;98832.44;5234841;28;20051;-79
2022/09/09 08:39:19;;;;;;;8.38;1.23;;;;;;;27.68;38.45;98822.69;5245420;28;20058;-79
2022/09/09 08:42:29;;;;;;;2.72;0.98;;;;;;;27.02;38.99;98822.81;5234888;28;20054;-79
2022/09/09 08:45:24;;;;;;;5.55;0.98;;;;;;;25.64;41.21;98799.13;5231207;28;20041;-79
2022/09/09 08:48:20;;;;;;;6.30;1.10;;;;;;;26.50;40.53;98767.00;5224779;28;20063;-80
2022/09/09 08:51:13;;;;;;;5.68;0.93;;;;;;;27.60;40.08;98791.28;5238571;28;20064;-78
2022/09/09 08:54:05;;;;;;;6.63;1.10;;;;;;;27.77;39.09;98792.00;5232215;28;20048;-79
2022/09/09 08:56:56;;;;;;;3.38;0.85;;;;;;;28.07;38.96;98791.41;5242082;28;21066;-78
2022/09/09 08:59:50;;;;;;;4.82;0.88;;;;;;;28.34;36.77;98774.94;5236798;28;20899;-78
2022/09/09 09:02:49;;;;;;;;;;;;;;;29.18;37.31;98802.31;5245704;28;20057;-77
2022/09/09 09:05:55;;;;;;;4.30;0.80;;;;;;;29.45;35.04;98800.16;5258158;28;19920;-76
2022/09/09 09:08:58;;;;;;;3.63;1.17;;;;;;;29.08;35.47;98789.44;5241635;28;20048;-77
2022/09/09 09:11:54;;;;;;;1.80;0.60;;;;;;;29.21;34.93;98801.75;5257397;28;20071;-77
2022/09/09 09:14:47;;;;;;;2.88;0.68;;;;;;;28.05;36.60;98788.13;5237968;28;20052;-80
2022/09/09 09:17:39;;;;;;;3.65;0.65;;;;;;;28.64;39.39;98795.25;5234050;28;20048;-78
2022/09/09 09:20:53;;;;;;;3.03;0.60;;;;;;;27.56;36.13;98796.44;5232017;28;20049;-78
2022/09/09 09:23:59;;;;;;;4.32;0.90;;;;;;;26.57;38.74;98805.69;5218930;28;20128;-77
2022/09/09 09:26:52;;;;;;;2.70;0.60;;;;;;;25.70;38.94;98784.56;5228457;28;20045;-79
2022/09/09 09:29:44;;;;;;;3.58;0.85;;;;;;;23.49;41.90;98791.06;5203891;28;20059;-78
2022/09/09 09:33:01;;;;;;;2.13;0.50;;;;;;;24.72;39.35;98773.81;5230801;28;20056;-78
2022/09/09 09:35:51;;;;;;;2.53;0.70;;;;;;;25.97;37.14;98754.84;5259889;28;20061;-79
2022/09/09 09:39:00;;;;;;;2.88;0.60;;;;;;;27.06;37.25;98788.59;5218553;28;20060;-79
2022/09/09 09:42:15;;;;;;;3.85;0.60;;;;;;;27.10;36.47;98793.25;5229625;28;20753;-78
2022/09/09 09:45:35;;;;;;;5.53;0.95;;;;;;;27.93;36.04;98784.78;5244522;28;20733;-77
2022/09/09 09:48:27;;;;;;;3.10;0.75;;;;;;;27.59;34.42;98765.16;5244316;28;20081;-78
2022/09/09 09:51:22;;;;;;;3.28;0.70;;;;;;;27.31;36.46;98758.09;5262524;28;21136;-78
2022/09/09 09:54:22;;;;;;;3.55;0.60;;;;;;;28.51;35.48;98766.59;5239827;28;20750;-79
2022/09/09 09:57:18;;;;;;;2.35;0.85;;;;;;;29.82;32.00;98760.81;5251003;28;20122;-77
2022/09/09 10:00:18;;;;;;;4.95;0.82;;;;;;;30.01;32.01;98752.88;5228365;28;20174;-76
2022/09/09 10:03:37;;;;;;;3.58;0.77;;;;;;;29.58;32.60;98760.53;5238153;28;20181;-76
2022/09/09 10:06:33;;;;;;;3.45;0.65;;;;;;;30.07;32.79;98737.28;5243211;28;20134;-76
2022/09/09 10:09:32;;;;;;;5.88;1.10;;;;;;;30.31;32.98;98756.66;5238597;28;20067;-77
2022/09/09 10:12:44;;;;;;;2.13;0.80;;;;;;;29.75;32.73;98754.81;5238576;28;20071;-76
2022/09/09 10:15:51;;;;;;;2.55;0.70;;;;;;;29.08;33.96;98750.41;5254012;28;20680;-77
2022/09/09 10:19:05;;;;;;;1.90;0.55;;;;;;;29.80;32.07;98746.63;5239715;28;20222;-77
2022/09/09 10:22:06;;;;;;;3.35;0.60;;;;;;;29.50;32.24;98750.16;5239380;28;20131;-76
2022/09/09 10:25:34;;;;;;;3.03;0.85;;;;;;;29.96;32.81;98770.06;5251549;28;20095;-79
2022/09/09 10:28:41;;;;;;;6.22;0.63;;;;;;;26.42;36.41;98770.13;5238478;28;20165;-77
2022/09/09 10:31:56;;;;;;;1.20;0.30;;;;;;;24.22;40.99;98757.31;5237378;28;20059;-79
2022/09/09 10:35:14;;;;;;;4.45;0.63;;;;;;;23.94;42.25;98761.59;5242588;28;20087;-76
2022/09/09 10:38:32;;;;;;;4.22;0.75;;;;;;;24.49;43.79;98765.75;5249826;28;20476;-79
2022/09/09 10:42:04;;;;;;;2.15;0.77;;;;;;;25.44;40.41;98777.91;5235077;28;20057;-76
2022/09/09 10:44:57;;;;;;;3.60;0.50;;;;;;;25.24;40.78;98781.88;5225441;28;20063;-77
2022/09/09 10:47:54;;;;;;;2.70;0.40;;;;;;;22.97;44.15;98778.91;5249127;28;20059;-81
2022/09/09 10:50:52;;;;;;;3.78;0.52;;;;;;;23.90;44.16;98782.88;5224968;28;20059;-82
2022/09/09 10:54:17;;;;;;;6.65;0.75;;;;;;;25.14;42.01;98760.00;5223092;28;20901;-80
2022/09/09 10:57:28;;;;;;;1.33;0.73;;;;;;;25.43;41.98;98763.50;5247382;28;20067;-79
2022/09/09 11:00:23;;;;;;;6.20;0.73;;;;;;;25.70;40.15;98763.66;5248027;28;20051;-82
2022/09/09 11:03:22;;;;;;;5.55;0.63;;;;;;;24.42;40.44;98760.47;5226650;28;20186;-80
2022/09/09 11:06:18;;;;;;;4.38;0.60;;;;;;;23.46;44.43;98776.09;5242517;28;20056;-79
2022/09/09 11:09:18;;;;;;;6.38;0.68;;;;;;;22.93;45.87;98758.78;5247063;28;20409;-82
2022/09/09 11:12:15;;;;;;;4.85;0.90;;;;;;;23.25;47.28;98773.94;5261219;28;20063;-80
2022/09/09 11:15:40;;;;;;;4.63;0.82;;;;;;;23.01;48.24;98783.84;5233760;28;20068;-79
2022/09/09 11:18:34;;;;;;;;;;;;;;;22.64;49.93;98779.31;5227653;28;20418;-79
2022/09/09 11:21:36;;;;;;;4.40;0.80;;;;;;;22.42;50.52;98762.75;5247884;28;19927;-79
2022/09/09 11:24:34;;;;;;;4.57;0.70;;;;;;;22.34;50.71;98794.63;5231508;28;20052;-82
2022/09/09 11:27:31;;;;;;;5.30;0.80;;;;;;;22.18;50.41;98802.25;5244286;28;20174;-77
2022/09/09 11:30:37;;;;;;;4.50;0.98;;;;;;;21.01;52.78;98774.94;5267551;28;20536;-78
2022/09/09 11:33:45;;;;;;;1.58;0.50;;;;;;;21.40;52.00;98821.59;5249343;28;20052;-78
2022/09/09 11:37:00;;;;;;;6.03;0.73;;;;;;;21.27;54.73;98822.47;5248674;28;20055;-80
2022/09/09 11:40:10;;;;;;;3.47;0.60;;;;;;;21.48;52.43;98823.19;5262427;28;20490;-78
2022/09/09 11:43:33;;;;;;;3.22;0.93;;;;;;;21.25;54.01;98815.66;5253460;28;20066;-80
2022/09/09 11:46:36;;;;;;;3.33;0.57;;;;;;;21.74;52.83;98816.78;5252061;28;20095;-79
2022/09/09 11:49:47;;;;;;;5.07;0.70;;;;;;;21.13;52.02;98809.31;5264982;28;20079;-79
2022/09/09 11:52:39;;;;;;;3.83;0.60;;;;;;;20.83;52.12;98809.88;5249766;28;20058;-80
2022/09/09 11:55:36;;;;;;;3.38;0.50;;;;;;;22.01;51.42;98812.78;5252140;28;20068;-79
2022/09/09 11:58:32;;;;;;;3.50;0.65;;;;;;;22.32;50.41;98802.13;5255731;28;20063;-78
2022/09/09 12:01:30;;;;;;;4.45;0.65;;;;;;;22.11;49.79;98776.34;5262259;28;20060;-78
2022/09/09 12:04:30;;;;;;;2.40;0.60;;;;;;;21.29;49.41;98785.34;5231007;28;20365;-81
2022/09/09 12:07:33;;;;;;;2.97;0.45;;;;;;;22.23;49.02;98788.09;5234910;28;20098;-77
2022/09/09 12:10:28;;;;;;;1.23;0.57;;;;;;;22.60;49.99;98778.13;5260670;28;20154;-77
2022/09/09 12:13:24;;;;;;;2.13;0.45;;;;;;;23.14;46.78;98756.63;5234036;28;20064;-76
2022/09/09 12:16:37;;;;;;;2.88;0.25;;;;;;;24.00;44.81;98748.97;5245630;28;20044;-81
2022/09/09 12:19:27;;;;;;;0.73;0.20;;;;;;;23.92;42.48;98734.72;5240574;28;20068;-80
2022/09/09 12:22:40;;;;;;;0.85;0.10;;;;;;;23.85;41.90;98746.75;5232675;28;20785;-79
2022/09/09 12:25:41;;;;;;;4.47;0.82;;;;;;;23.04;42.43;98753.66;5238494;28;20511;-80
2022/09/09 12:28:34;;;;;;;0.63;0.22;;;;;;;23.80;43.01;98763.69;5265262;28;20040;-80
2022/09/09 12:31:28;;;;;;;0.73;0.10;;;;;;;24.32;40.71;98758.34;5270997;28;20568;-79
2022/09/09 12:34:27;;;;;;;1.65;0.30;;;;;;;24.77;41.83;98754.97;5235081;28;20104;-79
2022/09/09 12:37:29;;;;;;;4.00;0.60;;;;;;;24.44;40.86;98754.84;5281846;28;20056;-80
2022/09/09 12:40:35;;;;;;;1.38;0.30;;;;;;;24.80;38.70;98740.91;5283156;28;20051;-79
2022/09/09 12:43:27;;;;;;;0.70;0.30;;;;;;;25.05;38.30;98750.59;5232216;28;20079;-80
2022/09/09 12:46:31;;;;;;;3.35;0.30;;;;;;;24.93;38.58;98741.66;5251727;28;20781;-80
2022/09/09 12:49:34;;;;;;;5.05;0.40;;;;;;;24.74;38.12;98750.03;5255931;28;20052;-80
2022/09/09 12:52:30;;;;;;;0.90;0.30;;;;;;;25.12;37.73;98751.28;5256063;28;20075;-79
2022/09/09 12:55:25;;;;;;;1.70;0.45;;;;;;;25.33;37.17;98743.50;5257802;28;20048;-80
2022/09/09 12:58:18;;;;;;;1.52;0.73;;;;;;;24.84;37.84;98739.38;5272117;28;20056;-79
2022/09/09 13:01:21;;;;;;;1.90;0.47;;;;;;;24.97;38.01;98727.41;5251775;28;20044;-79
2022/09/09 13:04:24;;;;;;;2.75;0.50;;;;;;;24.72;36.91;98719.59;5238280;28;20071;-79
2022/09/09 13:07:15;;;;;;;4.10;0.47;;;;;;;25.06;39.13;98687.13;5258864;28;20124;-79
2022/09/09 13:10:10;;;;;;;2.60;0.57;;;;;;;25.21;39.48;98727.28;5273651;28;20063;-79
2022/09/09 13:13:19;;;;;;;4.03;0.40;;;;;;;25.38;39.49;98716.44;5254316;28;20496;-80
2022/09/09 13:16:25;;;;;;;0.98;0.30;;;;;;;25.47;39.22;98731.25;5256872;28;20503;-80
2022/09/09 13:19:16;;;;;;;3.85;0.25;;;;;;;25.51;38.56;98716.94;5260918;28;20056;-80
2022/09/09 13:22:30;;;;;;;3.53;0.63;;;;;;;25.72;39.06;98715.34;5247106;28;20058;-80
2022/09/09 13:25:27;;;;;;;1.75;0.40;;;;;;;26.35;37.96;98724.09;5250310;28;20051;-80
2022/09/09 13:28:24;;;;;;;3.60;0.50;;;;;;;26.31;36.23;98716.72;5233248;28;20067;-80
2022/09/09 13:31:24;;;;;;;2.92;0.22;;;;;;;25.16;39.28;98736.16;5259050;28;20056;-78
2022/09/09 13:34:30;;;;;;;2.00;0.45;;;;;;;25.36;39.34;98718.56;5239988;28;20061;-80
2022/09/09 13:37:27;;;;;;;2.75;0.68;;;;;;;25.67;38.78;98703.59;5258974;28;20072;-81
2022/09/09 13:40:21;;;;;;;2.28;0.50;;;;;;;25.61;38.03;98708.13;5259621;28;20083;-79
2022/09/09 13:43:20;;;;;;;1.17;0.50;;;;;;;25.71;38.72;98702.84;5280730;28;20174;-78
2022/09/09 13:46:40;;;;;;;0.40;0.40;;;;;;;25.22;39.38;98707.22;5254657;28;20120;-78
2022/09/09 13:49:33;;;;;;;3.97;0.40;;;;;;;25.19;40.42;98696.88;5258416;28;20135;-78
2022/09/09 13:52:23;;;;;;;1.10;0.30;;;;;;;24.99;39.49;98697.31;5257285;28;20083;-78
2022/09/09 13:55:14;;;;;;;1.88;0.40;;;;;;;24.36;40.44;98693.66;5237699;28;20049;-80
2022/09/09 13:58:05;;;;;;;4.38;0.63;;;;;;;23.78;41.52;98689.19;5244732;28;20080;-79